New Auburn, WI (54757)

12:38 PM CDT on July 30, 2016 (GMT -0500)
Chetek Municipal Southworth A | | Change Station

Elev 1053 ft 45.31 °N, 91.64 °W | Updated 23 minutes ago

Clear
Clear
75 °F
Feels Like 75 °F
N
0
Wind Variable Wind from North

Today
High -- | Low -- °F
--% Chance of Precip.
Yesterday
High -- | Low -- °F
Precip. -- in
Pressure 30.07 in
Visibility 10.0 miles
Clouds Clear
Dew Point 56 °F
Humidity 51%
Rainfall 0.00 in
Snow Depth Not available.
5:48 AM 8:35 PM
Waning Crescent, 12% visible
METAR KY23 301715Z AUTO 00000KT 10SM CLR 24/14 A3007 RMK AO2 T02410135
Pressure 30.07 in
Visibility 10.0 miles
Clouds Clear
Dew Point 56 °F
Humidity 51%
Rainfall 0.00 in
Snow Depth Not available.
5:48 AM 8:35 PM
Waning Crescent, 12% visible
METAR KY23 301715Z AUTO 00000KT 10SM CLR 24/14 A3007 RMK AO2 T02410135

10-Day Weather Forecast

Almanac

Astronomy

Jul. 30, 2016 Rise Set
Actual Time
Civil Twilight
Nautical Twilight
Astronomical Twilight
Moon
Length of Visible Light
Length of Day
Tomorrow will be .
, % of the Moon is Illuminated

Today's Extremes

State Highs State Lows

Community

WunderPhotos

Upload Photos

1,928,600 photos uploaded!

WunderBlog® & News

Nearby

Air Quality

  Air Quality AQ Index Pollutant
Not available.

Snow Depth

Station Depth Elevation

Earthquake Activity

City Distance Mag. Time & Date
Minimum magnitude displayed is 2.5.

Coastal Water Temperatures

Place Temperature

Stations

Nearby Weather Stations

Station Location Temp. Windchill Dew Point Humidity Wind Precip. Elev Updated Type
                   

Watches & Warnings

There are currently no watches in effect.